createdAt,value
2019-03-25T00:00:03.697Z,885.00
2019-03-25T00:01:04.525Z,885.00
2019-03-25T00:02:05.000Z,884.00
2019-03-25T00:03:05.044Z,884.00
2019-03-25T00:04:05.257Z,885.00
2019-03-25T00:05:05.455Z,886.00
2019-03-25T00:06:06.478Z,885.00
2019-03-25T00:07:06.567Z,885.00
2019-03-25T00:08:07.420Z,886.00
2019-03-25T00:09:07.530Z,886.00
2019-03-25T00:10:08.440Z,879.00
2019-03-25T00:11:08.717Z,886.00
2019-03-25T00:12:09.011Z,889.00
2019-03-25T00:13:10.008Z,888.00
2019-03-25T00:14:10.375Z,888.00
2019-03-25T00:15:10.134Z,888.00
2019-03-25T00:16:11.333Z,889.00
2019-03-25T00:17:12.153Z,889.00
2019-03-25T00:18:12.743Z,889.00
2019-03-25T00:19:13.685Z,889.00
2019-03-25T00:20:14.270Z,888.00
2019-03-25T00:21:15.119Z,888.00
2019-03-25T00:22:15.990Z,888.00
2019-03-25T00:23:16.774Z,888.00
2019-03-25T00:24:17.047Z,886.00
2019-03-25T00:25:17.102Z,885.00
2019-03-25T00:26:17.243Z,885.00
2019-03-25T00:27:18.099Z,884.00
2019-03-25T00:28:18.841Z,889.00
2019-03-25T00:29:19.167Z,888.00
2019-03-25T00:30:19.657Z,888.00
2019-03-25T00:31:20.499Z,886.00
2019-03-25T00:32:21.284Z,889.00
2019-03-25T00:33:21.425Z,888.00
2019-03-25T00:33:29.966Z,889.00
2019-03-25T00:34:31.126Z,888.00
2019-03-25T00:35:30.237Z,889.00
2019-03-25T00:36:32.102Z,890.00
2019-03-25T00:37:31.380Z,893.00
2019-03-25T00:38:32.438Z,890.00
2019-03-25T00:39:32.646Z,890.00
2019-03-25T00:40:33.602Z,890.00
2019-03-25T00:41:34.048Z,890.00
2019-03-25T00:42:34.345Z,890.00
2019-03-25T00:43:35.253Z,890.00
2019-03-25T00:44:35.435Z,889.00
2019-03-25T00:45:35.919Z,890.00
2019-03-25T00:46:36.074Z,890.00
2019-03-25T00:47:36.092Z,889.00
2019-03-25T00:48:37.047Z,889.00
2019-03-25T00:49:37.897Z,889.00
2019-03-25T00:50:38.826Z,889.00
2019-03-25T00:51:38.890Z,888.00
2019-03-25T00:52:39.147Z,889.00
2019-03-25T00:53:42.949Z,889.00
2019-03-25T00:54:49.563Z,889.00
2019-03-25T00:55:40.362Z,889.00
2019-03-25T00:56:41.449Z,889.00
2019-03-25T00:57:42.419Z,889.00
2019-03-25T00:58:42.464Z,888.00
2019-03-25T00:59:42.566Z,888.00
2019-03-25T01:00:44.537Z,888.00
2019-03-25T01:01:43.808Z,888.00
2019-03-25T01:02:43.823Z,886.00
2019-03-25T01:03:44.344Z,888.00
2019-03-25T01:04:44.336Z,888.00
2019-03-25T01:05:44.645Z,880.00
2019-03-25T01:06:45.009Z,889.00
2019-03-25T01:07:45.923Z,889.00
2019-03-25T01:08:47.673Z,880.00
2019-03-25T01:09:47.073Z,888.00
2019-03-25T01:10:47.434Z,889.00
2019-03-25T01:11:49.279Z,888.00
2019-03-25T01:12:47.360Z,888.00
2019-03-25T01:13:49.139Z,888.00
2019-03-25T01:14:49.208Z,888.00
2019-03-25T01:15:49.667Z,889.00
2019-03-25T01:16:50.365Z,889.00
2019-03-25T01:17:51.216Z,890.00
2019-03-25T01:18:51.392Z,889.00
2019-03-25T01:19:52.337Z,888.00
2019-03-25T01:20:52.752Z,888.00
2019-03-25T01:21:01.795Z,888.00
2019-03-25T01:22:02.887Z,888.00
2019-03-25T01:23:03.877Z,889.00
2019-03-25T01:24:04.064Z,888.00
2019-03-25T01:25:04.286Z,888.00
2019-03-25T01:26:04.666Z,888.00
2019-03-25T01:27:05.108Z,888.00
2019-03-25T01:28:05.398Z,889.00
2019-03-25T01:29:06.288Z,888.00
2019-03-25T01:30:06.525Z,886.00
2019-03-25T01:31:06.866Z,888.00
2019-03-25T01:32:07.342Z,888.00
2019-03-25T01:33:07.393Z,888.00
2019-03-25T01:34:07.928Z,890.00
2019-03-25T01:35:08.185Z,890.00
2019-03-25T01:36:08.366Z,889.00
2019-03-25T01:37:09.244Z,888.00
2019-03-25T01:38:09.919Z,890.00
2019-03-25T01:39:10.848Z,890.00
2019-03-25T01:40:11.562Z,890.00
2019-03-25T01:41:11.863Z,873.00
2019-03-25T01:42:12.811Z,882.00
2019-03-25T01:43:12.805Z,881.00
2019-03-25T01:44:13.178Z,882.00
2019-03-25T01:45:13.338Z,882.00
2019-03-25T01:46:14.207Z,882.00
2019-03-25T01:47:15.058Z,882.00
2019-03-25T01:48:16.002Z,883.00
2019-03-25T01:49:16.883Z,889.00
2019-03-25T01:50:17.850Z,890.00
2019-03-25T01:51:18.180Z,891.00
2019-03-25T01:52:18.973Z,892.00
2019-03-25T01:53:18.813Z,890.00
2019-03-25T01:54:19.835Z,890.00
2019-03-25T01:55:20.815Z,890.00
2019-03-25T01:56:21.156Z,889.00
2019-03-25T01:57:22.058Z,893.00
2019-03-25T01:58:23.018Z,890.00
2019-03-25T01:59:23.825Z,889.00
2019-03-25T02:00:24.716Z,889.00
2019-03-25T02:01:25.652Z,890.00
2019-03-25T02:02:25.764Z,881.00
2019-03-25T02:03:26.667Z,890.00
2019-03-25T02:04:27.598Z,890.00
2019-03-25T02:05:28.615Z,893.00
2019-03-25T02:05:37.162Z,893.00
2019-03-25T02:06:38.207Z,890.00
2019-03-25T02:07:39.137Z,892.00
2019-03-25T02:08:39.180Z,890.00
2019-03-25T02:09:40.107Z,890.00
2019-03-25T02:10:40.920Z,892.00
2019-03-25T02:11:41.005Z,890.00
2019-03-25T02:12:41.931Z,890.00
2019-03-25T02:13:42.396Z,890.00
2019-03-25T02:14:43.331Z,889.00
2019-03-25T02:15:44.169Z,883.00
2019-03-25T02:16:44.265Z,883.00
2019-03-25T02:17:44.948Z,884.00
2019-03-25T02:18:45.213Z,893.00
2019-03-25T02:19:46.087Z,890.00
2019-03-25T02:20:46.962Z,891.00
2019-03-25T02:21:47.072Z,890.00
2019-03-25T02:22:48.085Z,890.00
2019-03-25T02:23:47.806Z,889.00
2019-03-25T02:24:49.776Z,889.00
2019-03-25T02:25:50.031Z,890.00
2019-03-25T02:26:50.108Z,889.00
2019-03-25T02:27:50.255Z,891.00
2019-03-25T02:28:51.259Z,890.00
2019-03-25T02:29:52.159Z,890.00
2019-03-25T02:30:53.107Z,890.00
2019-03-25T02:31:53.185Z,890.00
2019-03-25T02:32:53.188Z,890.00
2019-03-25T02:33:53.494Z,883.00
2019-03-25T02:34:53.514Z,889.00
2019-03-25T02:35:54.398Z,889.00
2019-03-25T02:36:54.553Z,889.00
2019-03-25T02:37:53.697Z,890.00
2019-03-25T02:38:55.645Z,880.00
2019-03-25T02:39:56.028Z,890.00
2019-03-25T02:40:56.384Z,890.00
2019-03-25T02:41:57.309Z,890.00
2019-03-25T02:42:57.596Z,893.00
2019-03-25T02:43:58.386Z,890.00
2019-03-25T02:44:58.421Z,892.00
2019-03-25T02:45:58.477Z,890.00
2019-03-25T02:46:58.856Z,893.00
2019-03-25T02:47:58.904Z,891.00
2019-03-25T02:48:59.769Z,890.00
2019-03-25T02:50:00.134Z,890.00
2019-03-25T02:50:08.674Z,882.00
2019-03-25T02:51:09.930Z,890.00
2019-03-25T02:52:10.346Z,890.00
2019-03-25T02:53:10.556Z,890.00
2019-03-25T02:54:11.542Z,889.00
2019-03-25T02:55:11.619Z,889.00
2019-03-25T02:56:12.459Z,889.00
2019-03-25T02:57:13.425Z,880.00
2019-03-25T02:58:14.263Z,879.00
2019-03-25T02:59:15.089Z,889.00
2019-03-25T03:00:15.890Z,889.00
2019-03-25T03:01:16.776Z,889.00
2019-03-25T03:02:16.080Z,889.00
2019-03-25T03:03:18.010Z,890.00
2019-03-25T03:04:18.923Z,889.00
2019-03-25T03:05:18.704Z,880.00
2019-03-25T03:06:19.864Z,889.00
2019-03-25T03:07:20.935Z,889.00
2019-03-25T03:08:20.693Z,890.00
2019-03-25T03:09:22.545Z,889.00
2019-03-25T03:10:21.743Z,889.00
2019-03-25T03:11:22.811Z,889.00
2019-03-25T03:12:22.949Z,889.00
2019-03-25T03:13:23.879Z,890.00
2019-03-25T03:14:24.630Z,881.00
2019-03-25T03:15:24.892Z,890.00
2019-03-25T03:16:25.834Z,880.00
2019-03-25T03:17:26.668Z,889.00
2019-03-25T03:18:27.539Z,890.00
2019-03-25T03:19:28.417Z,893.00
2019-03-25T03:20:28.481Z,893.00
2019-03-25T03:21:28.507Z,890.00
2019-03-25T03:22:27.538Z,890.00
2019-03-25T03:23:28.803Z,892.00
2019-03-25T03:24:28.834Z,889.00
2019-03-25T03:25:29.740Z,889.00
2019-03-25T03:26:30.750Z,890.00
2019-03-25T03:27:30.175Z,890.00
2019-03-25T03:28:29.152Z,889.00
2019-03-25T03:29:31.118Z,879.00
2019-03-25T03:30:32.228Z,888.00
2019-03-25T03:31:31.594Z,889.00
2019-03-25T03:32:32.660Z,890.00
2019-03-25T03:33:32.970Z,889.00
2019-03-25T03:34:33.810Z,890.00
2019-03-25T03:35:34.370Z,880.00
2019-03-25T03:36:34.669Z,889.00
2019-03-25T03:37:35.569Z,889.00
2019-03-25T03:38:35.655Z,890.00
2019-03-25T03:39:35.774Z,890.00
2019-03-25T03:39:45.319Z,890.00
2019-03-25T03:40:47.100Z,890.00
2019-03-25T03:41:46.169Z,890.00
2019-03-25T03:42:47.322Z,890.00
2019-03-25T03:43:47.734Z,889.00
2019-03-25T03:44:47.873Z,890.00
2019-03-25T03:45:48.136Z,889.00
2019-03-25T03:46:49.076Z,890.00
2019-03-25T03:47:49.245Z,890.00
2019-03-25T03:48:49.413Z,890.00
2019-03-25T03:49:50.311Z,889.00
2019-03-25T03:50:50.520Z,889.00
2019-03-25T03:51:50.777Z,888.00
2019-03-25T03:52:51.452Z,889.00
2019-03-25T03:53:51.742Z,889.00
2019-03-25T03:54:52.631Z,889.00
2019-03-25T03:55:52.734Z,889.00
2019-03-25T03:56:53.648Z,890.00
2019-03-25T03:57:53.884Z,889.00
2019-03-25T03:58:54.092Z,890.00
2019-03-25T03:59:54.987Z,890.00
2019-03-25T04:00:55.946Z,893.00
2019-03-25T04:01:56.820Z,890.00
2019-03-25T04:02:56.932Z,890.00
2019-03-25T04:03:57.936Z,890.00
2019-03-25T04:04:58.729Z,890.00
2019-03-25T04:05:59.536Z,889.00
2019-03-25T04:06:59.828Z,891.00
2019-03-25T04:07:59.981Z,890.00
2019-03-25T04:08:59.979Z,890.00
2019-03-25T04:10:00.932Z,889.00
2019-03-25T04:11:01.800Z,889.00
2019-03-25T04:12:02.607Z,890.00
2019-03-25T04:13:02.650Z,889.00
2019-03-25T04:14:03.373Z,889.00
2019-03-25T04:15:04.075Z,889.00
2019-03-25T04:16:04.148Z,888.00
2019-03-25T04:17:04.942Z,888.00
2019-03-25T04:18:05.163Z,886.00
2019-03-25T04:19:05.803Z,888.00
2019-03-25T04:20:06.800Z,888.00
2019-03-25T04:21:06.828Z,888.00
2019-03-25T04:22:06.986Z,886.00
2019-03-25T04:23:07.739Z,889.00
2019-03-25T04:24:07.949Z,888.00
2019-03-25T04:24:16.478Z,888.00
2019-03-25T04:25:18.550Z,886.00
2019-03-25T04:26:28.428Z,888.00
2019-03-25T04:27:17.954Z,888.00
2019-03-25T04:28:19.776Z,882.00
2019-03-25T04:29:20.017Z,880.00
2019-03-25T04:30:20.064Z,888.00
2019-03-25T04:31:20.476Z,890.00
2019-03-25T04:32:20.520Z,889.00
2019-03-25T04:33:20.750Z,888.00
2019-03-25T04:34:21.577Z,888.00
2019-03-25T04:35:22.549Z,888.00
2019-03-25T04:36:23.337Z,890.00
2019-03-25T04:37:24.143Z,890.00
2019-03-25T04:38:24.864Z,888.00
2019-03-25T04:39:25.785Z,889.00
2019-03-25T04:40:26.519Z,890.00
2019-03-25T04:41:26.709Z,890.00
2019-03-25T04:42:27.597Z,889.00
2019-03-25T04:43:28.389Z,888.00
2019-03-25T04:44:29.185Z,889.00
2019-03-25T04:45:29.215Z,879.00
2019-03-25T04:46:29.451Z,889.00
2019-03-25T04:47:29.844Z,889.00
2019-03-25T04:48:30.712Z,889.00
2019-03-25T04:49:31.735Z,889.00
2019-03-25T04:50:31.582Z,889.00
2019-03-25T04:51:33.563Z,888.00
2019-03-25T04:52:34.473Z,889.00
2019-03-25T04:53:35.247Z,889.00
2019-03-25T04:54:35.335Z,889.00
2019-03-25T04:55:35.854Z,880.00
2019-03-25T04:56:39.845Z,879.00
2019-03-25T04:57:35.783Z,879.00
2019-03-25T04:58:37.201Z,879.00
2019-03-25T04:59:37.421Z,879.00
2019-03-25T05:00:37.690Z,879.00
2019-03-25T05:01:37.996Z,880.00
2019-03-25T05:02:38.051Z,881.00
2019-03-25T05:03:38.357Z,889.00
2019-03-25T05:04:38.904Z,874.00
2019-03-25T05:05:39.632Z,879.00
2019-03-25T05:06:39.827Z,888.00
2019-03-25T05:07:40.016Z,880.00
2019-03-25T05:08:40.892Z,888.00
2019-03-25T05:09:41.806Z,888.00
2019-03-25T05:09:50.323Z,882.00
2019-03-25T05:10:52.270Z,888.00
2019-03-25T05:11:52.569Z,888.00
2019-03-25T05:12:52.713Z,888.00
2019-03-25T05:13:53.568Z,888.00
2019-03-25T05:14:53.974Z,888.00
2019-03-25T05:15:54.825Z,890.00
2019-03-25T05:16:55.487Z,889.00
2019-03-25T05:17:56.420Z,888.00
2019-03-25T05:18:56.442Z,889.00
2019-03-25T05:19:57.337Z,890.00
2019-03-25T05:20:58.177Z,890.00
2019-03-25T05:21:59.023Z,890.00
2019-03-25T05:22:59.644Z,889.00
2019-03-25T05:24:00.505Z,888.00
2019-03-25T05:25:01.321Z,881.00
2019-03-25T05:26:01.610Z,889.00
2019-03-25T05:27:01.646Z,890.00
2019-03-25T05:28:01.861Z,889.00
2019-03-25T05:29:02.205Z,890.00
2019-03-25T05:30:03.108Z,890.00
2019-03-25T05:31:03.281Z,891.00
2019-03-25T05:32:03.458Z,889.00
2019-03-25T05:33:04.202Z,890.00
2019-03-25T05:34:04.785Z,890.00
2019-03-25T05:35:05.051Z,889.00
2019-03-25T05:36:05.296Z,888.00
2019-03-25T05:37:06.270Z,886.00
2019-03-25T05:38:07.224Z,886.00
2019-03-25T05:39:08.186Z,888.00
2019-03-25T05:40:09.159Z,886.00
2019-03-25T05:41:10.108Z,879.00
2019-03-25T05:42:11.024Z,886.00
2019-03-25T05:43:11.278Z,888.00
2019-03-25T05:44:12.061Z,888.00
2019-03-25T05:45:12.704Z,888.00
2019-03-25T05:46:13.679Z,889.00
2019-03-25T05:47:13.692Z,893.00
2019-03-25T05:48:14.074Z,893.00
2019-03-25T05:49:15.274Z,893.00
2019-03-25T05:50:15.595Z,893.00
2019-03-25T05:51:15.618Z,892.00
2019-03-25T05:52:15.714Z,892.00
2019-03-25T05:53:15.824Z,894.00
2019-03-25T05:54:15.894Z,894.00
2019-03-25T21:58:10.642Z,885.00
2019-03-25T21:59:10.381Z,883.00
2019-03-25T22:00:11.133Z,883.00
2019-03-25T22:01:11.752Z,881.00
2019-03-25T22:02:13.602Z,884.00
2019-03-25T22:03:14.460Z,882.00
2019-03-25T22:04:14.431Z,883.00
2019-03-25T22:05:15.715Z,881.00
2019-03-25T22:06:16.495Z,882.00
2019-03-25T22:07:16.009Z,882.00
2019-03-25T22:08:17.939Z,872.00
2019-03-25T22:09:17.503Z,880.00
2019-03-25T22:10:19.405Z,879.00
2019-03-25T22:11:19.004Z,878.00
2019-03-25T22:12:19.756Z,877.00
2019-03-25T22:13:20.557Z,876.00
2019-03-25T22:14:21.257Z,876.00
2019-03-25T22:15:21.601Z,874.00
2019-03-25T22:16:22.176Z,879.00
2019-03-25T22:17:22.738Z,878.00
2019-03-25T22:18:23.879Z,878.00
2019-03-25T22:19:24.027Z,876.00
2019-03-25T22:20:25.031Z,876.00
2019-03-25T22:21:25.829Z,878.00
2019-03-25T22:22:26.120Z,876.00
2019-03-25T22:23:26.598Z,876.00
2019-03-25T22:24:26.964Z,874.00
2019-03-25T22:25:27.471Z,878.00
2019-03-25T22:26:27.377Z,880.00
2019-03-25T22:27:27.959Z,878.00
2019-03-25T22:28:28.248Z,867.00
2019-03-25T22:29:28.608Z,866.00
2019-03-25T22:30:28.849Z,876.00
2019-03-25T22:31:29.757Z,877.00
2019-03-25T22:32:29.992Z,866.00
2019-03-25T22:33:30.737Z,866.00
2019-03-25T22:34:31.269Z,867.00
2019-03-25T22:35:31.868Z,879.00
2019-03-25T22:36:32.920Z,867.00
2019-03-25T22:37:32.894Z,876.00
2019-03-25T22:38:33.730Z,876.00
2019-03-25T22:39:34.386Z,874.00
2019-03-25T22:40:34.982Z,876.00
2019-03-25T22:41:36.032Z,879.00
2019-03-25T22:42:35.849Z,880.00
2019-03-25T22:43:36.663Z,882.00
2019-03-25T22:44:37.411Z,879.00
2019-03-25T22:45:37.838Z,878.00
2019-03-25T22:46:37.865Z,878.00
2019-03-25T22:47:38.387Z,878.00
2019-03-25T22:48:39.320Z,878.00
2019-03-25T22:49:39.925Z,880.00
2019-03-25T22:50:40.780Z,884.00
2019-03-25T22:51:53.958Z,886.00
2019-03-25T22:53:15.833Z,888.00
2019-03-25T22:54:16.267Z,888.00
2019-03-25T22:55:16.562Z,888.00
2019-03-25T22:56:17.287Z,886.00
2019-03-25T22:57:17.570Z,886.00
2019-03-25T22:58:17.911Z,888.00
2019-03-25T22:59:21.439Z,889.00
2019-03-25T23:00:18.911Z,889.00
2019-03-25T23:01:20.053Z,889.00
2019-03-25T23:02:20.811Z,888.00
2019-03-25T23:03:20.974Z,889.00
2019-03-25T23:04:21.780Z,888.00
2019-03-25T23:05:22.200Z,890.00
2019-03-25T23:06:22.768Z,890.00
2019-03-25T23:07:23.511Z,891.00
2019-03-25T23:08:24.037Z,890.00
2019-03-25T23:09:24.640Z,888.00
2019-03-25T23:10:25.305Z,879.00
2019-03-25T23:11:26.214Z,888.00
2019-03-25T23:12:26.930Z,889.00
2019-03-25T23:13:27.546Z,889.00
2019-03-25T23:14:28.302Z,888.00
2019-03-25T23:15:28.368Z,889.00
2019-03-25T23:16:29.153Z,889.00
2019-03-25T23:17:29.215Z,888.00
2019-03-25T23:18:29.294Z,885.00
2019-03-25T23:19:29.666Z,884.00
2019-03-25T23:20:30.514Z,883.00
2019-03-25T23:21:30.880Z,882.00
2019-03-25T23:22:31.634Z,881.00
2019-03-25T23:23:32.081Z,880.00
2019-03-25T23:24:32.575Z,879.00
2019-03-25T23:25:33.059Z,879.00
2019-03-25T23:26:33.425Z,877.00
2019-03-25T23:27:34.104Z,878.00
2019-03-25T23:28:34.962Z,877.00
2019-03-25T23:29:35.332Z,876.00
2019-03-25T23:30:36.015Z,876.00
2019-03-25T23:31:36.826Z,876.00
2019-03-25T23:32:37.614Z,876.00
2019-03-25T23:33:38.034Z,877.00
2019-03-25T23:34:39.557Z,879.00
2019-03-25T23:35:38.866Z,867.00
2019-03-25T23:36:39.464Z,876.00
2019-03-25T23:37:40.677Z,874.00
2019-03-25T23:38:41.189Z,874.00
2019-03-25T23:39:41.699Z,876.00
2019-03-25T23:40:43.550Z,874.00
2019-03-25T23:41:43.025Z,865.00
2019-03-25T23:42:43.662Z,874.00
2019-03-25T23:43:44.503Z,877.00
2019-03-25T23:44:44.529Z,879.00
2019-03-25T23:45:44.912Z,879.00
2019-03-25T23:46:46.206Z,868.00
2019-03-25T23:47:46.495Z,876.00
2019-03-25T23:48:46.743Z,876.00
2019-03-25T23:49:46.969Z,874.00
2019-03-25T23:50:47.260Z,874.00
2019-03-25T23:51:47.547Z,865.00
2019-03-25T23:52:47.832Z,865.00
2019-03-25T23:53:48.240Z,865.00
2019-03-25T23:54:48.626Z,865.00
2019-03-25T23:55:48.972Z,865.00
2019-03-25T23:56:49.287Z,865.00
2019-03-25T23:57:49.638Z,866.00
2019-03-25T23:57:58.173Z,868.00
2019-03-25T23:58:59.405Z,876.00
2019-03-25T23:59:59.693Z,874.00
